createdAt,value
2016-10-07T00:00:05.442Z,10.33
2016-10-07T00:01:05.459Z,10.33
2016-10-07T00:03:06.049Z,10.45
2016-10-07T00:04:05.824Z,10.48
2016-10-07T00:05:05.799Z,10.38
2016-10-07T00:06:05.583Z,10.48
2016-10-07T00:07:05.593Z,10.51
2016-10-07T00:09:20.557Z,10.53
2016-10-07T00:10:05.652Z,10.48
2016-10-07T00:11:20.602Z,10.51
2016-10-07T00:12:05.694Z,10.48
2016-10-07T00:13:05.728Z,10.48
2016-10-07T00:14:05.746Z,10.48
2016-10-07T00:15:05.763Z,10.36
2016-10-07T00:16:05.787Z,10.44
2016-10-07T00:17:05.811Z,10.34
2016-10-07T00:18:20.753Z,10.48
2016-10-07T00:19:05.850Z,10.45
2016-10-07T00:20:05.872Z,10.48
2016-10-07T00:21:05.889Z,10.56
2016-10-07T00:22:05.910Z,10.44
2016-10-07T00:23:05.933Z,10.47
2016-10-07T00:24:05.961Z,10.47
2016-10-07T00:25:05.983Z,10.53
2016-10-07T00:26:06.002Z,10.48
2016-10-07T00:27:20.945Z,10.51
2016-10-07T00:28:06.037Z,10.53
2016-10-07T00:29:06.064Z,10.52
2016-10-07T00:30:06.091Z,10.53
2016-10-07T00:31:06.118Z,10.51
2016-10-07T00:32:06.132Z,10.53
2016-10-07T00:33:06.147Z,10.52
2016-10-07T00:34:06.170Z,10.59
2016-10-07T00:35:06.187Z,10.59
2016-10-07T00:36:06.221Z,10.53
2016-10-07T00:37:06.234Z,10.48
2016-10-07T00:38:06.260Z,10.45
2016-10-07T00:39:21.202Z,10.42
2016-10-07T00:41:06.324Z,10.38
2016-10-07T00:42:06.345Z,10.44
2016-10-07T00:43:21.285Z,10.51
2016-10-07T00:44:06.382Z,10.56
2016-10-07T00:45:06.405Z,10.51
2016-10-07T00:46:06.426Z,10.51
2016-10-07T00:47:06.450Z,10.51
2016-10-07T00:48:06.470Z,10.47
2016-10-07T00:49:06.499Z,10.4
2016-10-07T00:50:21.444Z,10.42
2016-10-07T00:51:06.536Z,10.38
2016-10-07T00:52:06.678Z,10.38
2016-10-07T00:53:06.579Z,10.34
2016-10-07T00:54:06.596Z,10.32
2016-10-07T00:55:06.623Z,10.23
2016-10-07T00:56:06.639Z,10.25
2016-10-07T00:57:06.669Z,10.25
2016-10-07T00:58:06.682Z,10.26
2016-10-07T00:59:21.630Z,10.23
2016-10-07T01:01:06.753Z,10.27
2016-10-07T01:02:06.773Z,10.17
2016-10-07T01:03:06.790Z,10.23
2016-10-07T01:04:06.815Z,10.29
2016-10-07T01:05:06.829Z,10.26
2016-10-07T01:06:06.860Z,10.22
2016-10-07T01:07:06.877Z,10.25
2016-10-07T01:08:06.897Z,10.2
2016-10-07T01:09:06.921Z,10.15
2016-10-07T01:10:21.864Z,10.18
2016-10-07T01:11:06.967Z,10.22
2016-10-07T01:12:07.035Z,10.22
2016-10-07T01:13:07.057Z,10.18
2016-10-07T01:14:21.950Z,10.18
2016-10-07T01:15:07.048Z,10.18
2016-10-07T01:16:07.070Z,10.18
2016-10-07T01:17:07.089Z,10.14
2016-10-07T01:18:07.111Z,10.22
2016-10-07T01:19:07.130Z,10.17
2016-10-07T01:20:07.151Z,10.17
2016-10-07T01:21:07.198Z,10.23
2016-10-07T01:22:07.447Z,10.22
2016-10-07T01:23:07.217Z,10.17
2016-10-07T01:24:07.238Z,10.22
2016-10-07T01:25:07.260Z,10.18
2016-10-07T01:26:07.281Z,10.22
2016-10-07T01:27:07.302Z,10.17
2016-10-07T01:28:07.328Z,10.22
2016-10-07T01:29:07.353Z,10.18
2016-10-07T01:30:07.367Z,10.22
2016-10-07T01:31:07.388Z,10.2
2016-10-07T01:32:07.405Z,10.23
2016-10-07T01:33:07.681Z,10.26
2016-10-07T01:34:07.495Z,10.22
2016-10-07T01:35:07.475Z,10.22
2016-10-07T01:36:07.495Z,10.18
2016-10-07T01:37:07.568Z,10.17
2016-10-07T01:38:07.537Z,10.14
2016-10-07T01:39:07.559Z,10.18
2016-10-07T01:40:07.575Z,10.27
2016-10-07T01:41:07.599Z,10.14
2016-10-07T01:42:07.622Z,10.15
2016-10-07T01:43:07.694Z,10.2
2016-10-07T01:44:07.667Z,10.23
2016-10-07T01:45:07.685Z,10.2
2016-10-07T01:46:22.676Z,10.14
2016-10-07T01:47:07.727Z,10.22
2016-10-07T01:48:07.797Z,10.2
2016-10-07T01:49:22.993Z,10.09
2016-10-07T01:50:07.791Z,10.22
2016-10-07T01:51:07.879Z,10.22
2016-10-07T01:52:07.883Z,10.2
2016-10-07T01:53:07.853Z,10.26
2016-10-07T01:54:07.876Z,10.15
2016-10-07T01:55:22.824Z,10.2
2016-10-07T01:56:07.928Z,10.27
2016-10-07T01:57:08.238Z,10.15
2016-10-07T01:58:08.016Z,10.15
2016-10-07T01:59:07.985Z,10.18
2016-10-07T02:00:22.926Z,10.23
2016-10-07T02:01:08.025Z,10.22
2016-10-07T02:02:22.970Z,10.27
2016-10-07T02:03:08.074Z,10.3
2016-10-07T02:04:08.144Z,10.27
2016-10-07T02:06:08.133Z,10.26
2016-10-07T02:07:08.155Z,10.3
2016-10-07T02:08:08.278Z,10.29
2016-10-07T02:09:08.247Z,10.32
2016-10-07T02:10:08.219Z,10.32
2016-10-07T02:11:08.241Z,10.3
2016-10-07T02:12:08.260Z,10.4
2016-10-07T02:13:08.337Z,10.33
2016-10-07T02:14:23.229Z,10.4
2016-10-07T02:15:08.324Z,10.41
2016-10-07T02:16:08.343Z,10.45
2016-10-07T02:17:08.617Z,10.38
2016-10-07T02:18:23.312Z,10.26
2016-10-07T02:19:08.413Z,10.3
2016-10-07T02:20:08.439Z,10.27
2016-10-07T02:21:08.457Z,10.27
2016-10-07T02:23:08.499Z,10.29
2016-10-07T02:24:08.518Z,10.18
2016-10-07T02:25:08.534Z,10.22
2016-10-07T02:26:08.564Z,10.22
2016-10-07T02:27:08.592Z,10.22
2016-10-07T02:29:08.627Z,10.32
2016-10-07T02:30:23.568Z,10.26
2016-10-07T02:31:08.714Z,10.25
2016-10-07T02:32:08.695Z,10.34
2016-10-07T02:33:08.710Z,10.36
2016-10-07T02:34:23.653Z,10.34
2016-10-07T02:35:08.755Z,10.36
2016-10-07T02:36:08.776Z,10.36
2016-10-07T02:37:08.797Z,10.34
2016-10-07T02:38:08.818Z,10.38
2016-10-07T02:39:08.845Z,10.36
2016-10-07T02:40:08.856Z,10.42
2016-10-07T02:42:08.903Z,10.47
2016-10-07T02:43:08.928Z,10.42
2016-10-07T02:44:08.950Z,10.48
2016-10-07T02:45:08.964Z,10.45
2016-10-07T02:48:09.080Z,10.47
2016-10-07T02:49:23.977Z,10.51
2016-10-07T02:50:09.077Z,10.48
2016-10-07T02:51:09.094Z,10.51
2016-10-07T02:52:09.121Z,10.51
2016-10-07T02:53:09.143Z,10.44
2016-10-07T02:54:09.479Z,10.48
2016-10-07T02:55:09.438Z,10.51
2016-10-07T02:56:09.209Z,10.51
2016-10-07T02:57:09.532Z,10.51
2016-10-07T02:58:09.255Z,10.41
2016-10-07T02:59:09.268Z,10.48
2016-10-07T03:00:09.611Z,10.44
2016-10-07T03:02:09.399Z,10.45
2016-10-07T03:03:24.277Z,10.45
2016-10-07T03:04:09.385Z,10.33
2016-10-07T03:05:09.405Z,10.53
2016-10-07T03:06:09.430Z,10.48
2016-10-07T03:07:09.453Z,10.45
2016-10-07T03:08:09.467Z,10.38
2016-10-07T03:09:09.791Z,10.47
2016-10-07T03:10:09.507Z,10.41
2016-10-07T03:11:09.536Z,10.38
2016-10-07T03:12:09.813Z,10.44
2016-10-07T03:13:09.573Z,10.41
2016-10-07T03:14:09.596Z,10.36
2016-10-07T03:15:09.611Z,10.44
2016-10-07T03:16:09.637Z,10.4
2016-10-07T03:17:09.654Z,10.47
2016-10-07T03:18:24.603Z,10.34
2016-10-07T03:20:09.733Z,10.32
2016-10-07T03:21:24.669Z,10.4
2016-10-07T03:23:09.788Z,10.36
2016-10-07T03:24:09.806Z,10.41
2016-10-07T03:25:09.831Z,10.36
2016-10-07T03:26:09.850Z,10.4
2016-10-07T03:27:09.881Z,10.25
2016-10-07T03:28:09.895Z,10.29
2016-10-07T03:29:09.926Z,10.38
2016-10-07T03:30:09.940Z,10.4
2016-10-07T03:32:24.908Z,10.47
2016-10-07T03:33:10.007Z,10.42
2016-10-07T03:35:10.049Z,10.41
2016-10-07T03:36:24.991Z,10.36
2016-10-07T03:37:25.011Z,10.34
2016-10-07T03:38:10.115Z,10.34
2016-10-07T03:39:10.138Z,10.44
2016-10-07T03:40:10.160Z,10.42
2016-10-07T03:41:10.182Z,10.33
2016-10-07T03:42:10.195Z,10.32
2016-10-07T03:43:10.218Z,10.25
2016-10-07T03:44:10.239Z,10.23
2016-10-07T03:45:10.265Z,10.22
2016-10-07T03:46:10.334Z,10.26
2016-10-07T03:47:10.310Z,10.18
2016-10-07T03:48:10.328Z,10.18
2016-10-07T03:49:10.343Z,10.22
2016-10-07T03:50:25.294Z,10.2
2016-10-07T03:51:10.655Z,10.22
2016-10-07T03:52:10.415Z,10.18
2016-10-07T03:53:25.357Z,10.23
2016-10-07T03:54:10.460Z,10.27
2016-10-07T03:55:10.480Z,10.17
2016-10-07T03:56:10.502Z,10.14
2016-10-07T03:57:10.527Z,10.26
2016-10-07T03:58:10.541Z,10.17
2016-10-07T03:59:10.560Z,10.23
2016-10-07T04:00:10.582Z,10.26
2016-10-07T04:01:10.602Z,10.25
2016-10-07T04:02:10.626Z,10.25
2016-10-07T04:03:10.649Z,10.14
2016-10-07T04:04:10.677Z,10.23
2016-10-07T04:05:10.695Z,10.25
2016-10-07T04:06:10.715Z,10.2
2016-10-07T04:07:10.738Z,10.22
2016-10-07T04:08:10.761Z,10.17
2016-10-07T04:09:26.007Z,10.18
2016-10-07T04:10:10.801Z,10.2
2016-10-07T04:11:10.824Z,10.15
2016-10-07T04:12:10.844Z,10.25
2016-10-07T04:13:10.864Z,10.23
2016-10-07T04:14:10.885Z,10.18
2016-10-07T04:15:11.152Z,10.25
2016-10-07T04:16:10.927Z,10.17
2016-10-07T04:17:10.950Z,10.11
2016-10-07T04:18:10.977Z,10.11
2016-10-07T04:19:10.993Z,10.07
2016-10-07T04:20:25.940Z,10.09
2016-10-07T04:21:11.035Z,10.12
2016-10-07T04:22:11.058Z,10.18
2016-10-07T04:23:11.078Z,10.14
2016-10-07T04:24:26.022Z,10.15
2016-10-07T04:25:11.122Z,10.23
2016-10-07T04:26:11.144Z,10.11
2016-10-07T04:27:11.171Z,10.15
2016-10-07T04:28:11.190Z,10.12
2016-10-07T04:29:11.207Z,10.17
2016-10-07T04:30:11.537Z,10.17
2016-10-07T04:31:11.556Z,10.15
2016-10-07T04:32:11.275Z,10.17
2016-10-07T04:33:11.294Z,10.14
2016-10-07T04:34:26.239Z,10.17
2016-10-07T04:35:11.336Z,10.15
2016-10-07T04:36:11.361Z,10.22
2016-10-07T04:37:11.376Z,10.14
2016-10-07T04:38:11.401Z,10.18
2016-10-07T04:39:11.424Z,10.17
2016-10-07T04:40:26.363Z,10.17
2016-10-07T04:41:26.384Z,10.18
2016-10-07T04:42:11.488Z,10.32
2016-10-07T04:43:11.512Z,10.23
2016-10-07T04:44:11.534Z,10.22
2016-10-07T04:45:11.851Z,10.22
2016-10-07T04:46:11.571Z,10.23
2016-10-07T04:47:11.600Z,10.22
2016-10-07T04:48:11.613Z,10.22
2016-10-07T04:49:11.636Z,10.2
2016-10-07T04:50:11.675Z,10.22
2016-10-07T04:51:26.605Z,10.29
2016-10-07T04:52:26.626Z,10.32
2016-10-07T04:53:11.726Z,10.25
2016-10-07T04:54:11.746Z,10.29
2016-10-07T04:55:11.763Z,10.25
2016-10-07T04:56:26.709Z,10.18
2016-10-07T04:57:11.806Z,10.25
2016-10-07T04:58:11.834Z,10.3
2016-10-07T04:59:11.850Z,10.2
2016-10-07T05:00:11.876Z,10.22
2016-10-07T05:01:11.898Z,10.27
2016-10-07T05:02:11.917Z,10.22
2016-10-07T05:03:11.948Z,10.26
2016-10-07T05:04:11.960Z,10.15
2016-10-07T05:06:12.006Z,10.17
2016-10-07T05:07:12.023Z,10.2
2016-10-07T05:09:12.068Z,10.17
2016-10-07T05:10:12.092Z,10.22
2016-10-07T05:11:27.030Z,10.27
2016-10-07T05:12:27.070Z,10.27
2016-10-07T05:13:12.156Z,10.32
2016-10-07T05:14:12.670Z,10.29
2016-10-07T05:15:12.194Z,10.29
2016-10-07T05:16:12.217Z,10.25
2016-10-07T05:17:12.240Z,10.29
2016-10-07T05:18:12.264Z,10.18
2016-10-07T05:19:12.281Z,10.29
2016-10-07T05:20:12.297Z,10.27
2016-10-07T05:21:12.327Z,10.3
2016-10-07T05:22:12.351Z,10.22
2016-10-07T05:23:12.373Z,10.18
2016-10-07T05:24:12.390Z,10.14
2016-10-07T05:26:12.424Z,10.15
2016-10-07T05:27:12.703Z,10.15
2016-10-07T05:28:27.394Z,10.22
2016-10-07T05:29:12.497Z,10.14
2016-10-07T05:30:12.519Z,10.18
2016-10-07T05:31:12.535Z,10.2
2016-10-07T05:32:12.558Z,10.25
2016-10-07T05:33:12.577Z,10.25
2016-10-07T05:34:12.603Z,10.23
2016-10-07T05:35:12.625Z,10.26
2016-10-07T05:36:12.644Z,10.22
2016-10-07T05:37:12.666Z,10.23
2016-10-07T05:39:12.710Z,10.26
2016-10-07T05:40:12.732Z,10.26
2016-10-07T05:41:12.745Z,10.3
2016-10-07T05:44:27.737Z,10.34
2016-10-07T05:45:13.145Z,10.38
2016-10-07T05:46:12.862Z,10.38
2016-10-07T05:47:12.879Z,10.27
2016-10-07T05:48:12.897Z,10.27
2016-10-07T05:49:12.922Z,10.27
2016-10-07T05:50:12.941Z,10.33
2016-10-07T05:51:12.964Z,10.36
2016-10-07T05:52:12.985Z,10.32
2016-10-07T05:53:13.009Z,10.33
2016-10-07T05:54:13.029Z,10.33
2016-10-07T05:55:13.054Z,10.33
2016-10-07T05:56:13.074Z,10.26
2016-10-07T05:57:13.096Z,10.25
2016-10-07T05:58:13.113Z,10.26
2016-10-07T05:59:28.057Z,10.25
2016-10-07T06:00:13.165Z,10.25
2016-10-07T06:01:13.192Z,10.27
2016-10-07T06:02:13.202Z,10.3
2016-10-07T06:03:13.223Z,10.38
2016-10-07T06:04:13.247Z,10.44
2016-10-07T06:05:13.268Z,10.52
2016-10-07T06:06:13.283Z,10.59
2016-10-07T06:07:13.315Z,10.48
2016-10-07T06:08:13.329Z,10.61
2016-10-07T06:09:13.349Z,10.61
2016-10-07T06:10:28.297Z,10.64
2016-10-07T06:12:13.414Z,10.42
2016-10-07T06:14:13.461Z,10.61
2016-10-07T06:15:13.487Z,10.63
2016-10-07T06:16:13.500Z,10.64
2016-10-07T06:17:13.521Z,10.61
2016-10-07T06:18:13.543Z,10.74
2016-10-07T06:19:13.567Z,10.67
2016-10-07T06:20:13.590Z,10.74
2016-10-07T06:21:13.619Z,10.74
2016-10-07T06:22:13.633Z,10.81
2016-10-07T06:23:13.657Z,10.63
2016-10-07T06:24:13.675Z,10.71
2016-10-07T06:25:13.695Z,10.71
2016-10-07T06:26:13.717Z,10.79
2016-10-07T06:27:28.665Z,10.78
2016-10-07T06:28:13.761Z,10.73
2016-10-07T06:29:13.776Z,10.86
2016-10-07T06:30:13.805Z,10.91
2016-10-07T06:31:28.751Z,10.91
2016-10-07T06:32:13.854Z,10.88
2016-10-07T06:33:13.867Z,10.89
2016-10-07T06:34:13.892Z,10.88
2016-10-07T06:35:13.913Z,10.91
2016-10-07T06:36:13.938Z,10.91
2016-10-07T06:37:13.955Z,10.89
2016-10-07T06:38:13.980Z,10.88
2016-10-07T06:39:13.999Z,10.7
2016-10-07T06:42:28.991Z,10.85
2016-10-07T06:44:14.113Z,10.79
2016-10-07T06:46:14.150Z,10.7
2016-10-07T06:47:29.096Z,10.74
2016-10-07T06:48:14.195Z,10.73
2016-10-07T06:49:14.213Z,10.7
2016-10-07T06:51:14.263Z,10.79
2016-10-07T06:52:14.277Z,10.88
2016-10-07T06:53:14.355Z,10.85
2016-10-07T06:54:14.327Z,10.91
2016-10-07T06:55:14.353Z,10.88
2016-10-07T06:56:14.374Z,11.06
2016-10-07T06:57:14.392Z,11.07
2016-10-07T06:58:14.511Z,11.06
2016-10-07T06:59:14.434Z,11.09
2016-10-07T07:00:14.460Z,11.07
2016-10-07T07:01:14.478Z,11.24
2016-10-07T07:02:14.500Z,11.17
2016-10-07T07:03:29.447Z,11.02
2016-10-07T07:04:29.464Z,11.17
2016-10-07T07:06:14.837Z,10.99
2016-10-07T07:07:14.609Z,11.09
2016-10-07T07:08:14.633Z,11.15
2016-10-07T07:09:14.654Z,11.27
2016-10-07T07:10:14.676Z,11.27
2016-10-07T07:11:14.695Z,11.28
2016-10-07T07:12:14.719Z,11.37
2016-10-07T07:14:14.764Z,11.58
2016-10-07T07:15:15.031Z,11.6
2016-10-07T07:16:14.812Z,11.57
2016-10-07T07:17:14.830Z,11.65
2016-10-07T07:18:14.853Z,11.76
2016-10-07T07:19:29.795Z,11.7
2016-10-07T07:20:14.911Z,11.9
2016-10-07T07:21:14.923Z,11.9
2016-10-07T07:22:14.940Z,11.88
2016-10-07T07:23:14.962Z,11.91
2016-10-07T07:24:14.993Z,11.72
2016-10-07T07:25:15.002Z,11.72
2016-10-07T07:26:15.032Z,11.78
2016-10-07T07:27:15.057Z,11.72
2016-10-07T07:28:15.084Z,11.75
2016-10-07T07:29:15.094Z,11.8
2016-10-07T07:30:15.122Z,11.76
2016-10-07T07:31:15.139Z,11.6
2016-10-07T07:32:15.170Z,11.6
2016-10-07T07:33:15.182Z,11.67
2016-10-07T07:34:30.132Z,11.67
2016-10-07T07:35:15.236Z,11.61
2016-10-07T07:37:15.280Z,11.73
2016-10-07T07:38:15.301Z,11.75
2016-10-07T07:39:15.324Z,11.75
2016-10-07T07:40:15.352Z,11.72
2016-10-07T07:41:15.374Z,11.62
2016-10-07T07:42:15.392Z,11.75
2016-10-07T07:43:15.413Z,11.73
2016-10-07T07:44:15.436Z,11.78
2016-10-07T07:46:15.486Z,11.73
2016-10-07T07:47:15.505Z,11.8
2016-10-07T07:48:15.529Z,11.96
2016-10-07T07:49:15.847Z,12.16
2016-10-07T07:50:15.575Z,12.09
2016-10-07T07:51:15.591Z,12.1
2016-10-07T07:52:15.623Z,12.21
2016-10-07T07:53:15.637Z,12.24
2016-10-07T07:54:15.714Z,12.35
2016-10-07T07:55:15.685Z,12.37
2016-10-07T07:56:15.710Z,12.41
2016-10-07T07:57:15.982Z,12.39
2016-10-07T07:58:15.753Z,12.41
2016-10-07T07:59:15.779Z,12.39
2016-10-07T08:01:15.818Z,12.53
2016-10-07T08:02:15.843Z,12.65
2016-10-07T08:03:15.872Z,12.68
2016-10-07T08:04:16.077Z,12.65
2016-10-07T08:05:15.910Z,12.67
2016-10-07T08:06:30.862Z,12.68
2016-10-07T08:08:15.976Z,12.54
2016-10-07T08:09:16.003Z,12.65
2016-10-07T08:10:16.182Z,12.68
2016-10-07T08:11:16.060Z,12.68
2016-10-07T08:13:16.115Z,12.7
2016-10-07T08:14:16.122Z,12.68
2016-10-07T08:15:16.146Z,12.71
2016-10-07T08:16:16.160Z,12.79
2016-10-07T08:17:16.491Z,12.62
2016-10-07T08:18:16.213Z,12.78
2016-10-07T08:19:16.235Z,12.72
2016-10-07T08:20:16.265Z,12.77
2016-10-07T08:21:16.292Z,12.68
2016-10-07T08:22:31.231Z,12.68
2016-10-07T08:23:16.337Z,12.74
2016-10-07T08:24:16.357Z,12.65
2016-10-07T08:25:16.378Z,12.67
2016-10-07T08:26:16.402Z,12.65
2016-10-07T08:27:16.429Z,12.68
2016-10-07T08:28:16.442Z,12.65
2016-10-07T08:29:31.388Z,12.67
2016-10-07T08:30:16.494Z,12.79
2016-10-07T08:31:16.513Z,12.79
2016-10-07T08:32:16.544Z,12.75
2016-10-07T08:34:16.583Z,12.83
2016-10-07T08:35:16.603Z,12.87
2016-10-07T08:36:16.626Z,12.9
2016-10-07T08:37:16.660Z,12.93
2016-10-07T08:38:31.601Z,12.9
2016-10-07T08:39:16.694Z,12.87
2016-10-07T08:40:16.725Z,13.05
2016-10-07T08:42:16.767Z,12.65
2016-10-07T08:43:16.793Z,12.67
2016-10-07T08:44:16.817Z,12.5
2016-10-07T08:45:16.838Z,12.45
2016-10-07T08:46:16.863Z,12.42
2016-10-07T08:47:16.885Z,12.57
2016-10-07T08:48:16.905Z,12.42
2016-10-07T08:49:16.927Z,12.32
2016-10-07T08:50:31.928Z,12.42
2016-10-07T08:51:16.972Z,12.54
2016-10-07T08:52:31.921Z,12.6
2016-10-07T08:53:17.016Z,12.5
2016-10-07T08:54:31.968Z,12.64
2016-10-07T08:55:17.069Z,12.53
2016-10-07T08:56:17.093Z,12.57
2016-10-07T08:57:17.114Z,12.56
2016-10-07T08:58:17.152Z,12.5
2016-10-07T08:59:17.166Z,12.53
2016-10-07T09:00:17.189Z,12.52
2016-10-07T09:01:17.206Z,12.6
2016-10-07T09:03:17.259Z,12.49
2016-10-07T09:04:17.280Z,12.35
2016-10-07T09:05:17.300Z,12.34
2016-10-07T09:06:17.327Z,12.42
2016-10-07T09:07:17.346Z,12.64
2016-10-07T09:08:17.370Z,12.54
2016-10-07T09:09:32.316Z,12.39
2016-10-07T09:10:17.420Z,12.52
2016-10-07T09:11:17.442Z,12.64
2016-10-07T09:12:17.464Z,12.6
2016-10-07T09:13:17.487Z,12.77
2016-10-07T09:14:17.506Z,12.79
2016-10-07T09:15:17.535Z,12.95
2016-10-07T09:16:17.569Z,12.9
2016-10-07T09:17:17.581Z,12.9
2016-10-07T09:18:17.596Z,12.87
2016-10-07T09:19:17.621Z,12.97
2016-10-07T09:20:17.646Z,12.86
2016-10-07T09:21:17.671Z,12.89
2016-10-07T09:22:17.938Z,12.89
2016-10-07T09:23:32.635Z,12.87
2016-10-07T09:24:17.735Z,12.85
2016-10-07T09:25:17.760Z,12.9
2016-10-07T09:26:17.781Z,12.89
2016-10-07T09:27:17.811Z,13.08
2016-10-07T09:28:17.829Z,12.97
2016-10-07T09:29:17.850Z,12.95
2016-10-07T09:30:17.878Z,13.03
2016-10-07T09:31:17.904Z,13.14
2016-10-07T09:32:17.923Z,13.11
2016-10-07T09:33:17.955Z,13.14
2016-10-07T09:35:17.996Z,13.14
2016-10-07T09:36:18.023Z,13.01
2016-10-07T09:37:32.961Z,13.01
2016-10-07T09:38:18.066Z,12.89
2016-10-07T09:39:18.134Z,13.1
2016-10-07T09:40:18.109Z,13.07
2016-10-07T09:41:33.051Z,13.07
2016-10-07T09:42:18.154Z,13.07
2016-10-07T09:43:18.180Z,13.08
2016-10-07T09:44:18.195Z,13.15
2016-10-07T09:45:18.228Z,13.03
2016-10-07T09:46:18.251Z,13.01
2016-10-07T09:47:18.270Z,13.07
2016-10-07T09:48:18.541Z,12.82
2016-10-07T09:49:18.315Z,12.37
2016-10-07T09:51:18.359Z,12.13
2016-10-07T09:52:18.387Z,11.96
2016-10-07T09:53:18.409Z,11.78
2016-10-07T09:54:18.440Z,11.72
2016-10-07T09:55:18.453Z,11.69
2016-10-07T09:56:18.483Z,11.95
2016-10-07T09:57:33.424Z,12.34
2016-10-07T09:58:33.447Z,12.47
2016-10-07T09:59:18.551Z,12.49
2016-10-07T10:00:18.579Z,12.42
2016-10-07T10:01:33.527Z,12.67
2016-10-07T10:03:18.644Z,12.74
2016-10-07T10:04:18.669Z,12.82
2016-10-07T10:05:18.703Z,12.87
2016-10-07T10:06:18.719Z,12.87
2016-10-07T10:07:18.733Z,12.93
2016-10-07T10:08:18.759Z,13.08
2016-10-07T10:09:18.781Z,13.14
2016-10-07T10:10:18.808Z,13.14
2016-10-07T10:11:18.831Z,12.95
2016-10-07T10:12:18.859Z,12.85
2016-10-07T10:13:33.799Z,12.77
2016-10-07T10:14:18.900Z,12.96
2016-10-07T10:15:18.925Z,13.04
2016-10-07T10:16:18.948Z,13.01
2016-10-07T10:17:18.970Z,13.04
2016-10-07T10:18:18.996Z,13.25
2016-10-07T10:19:19.021Z,12.89
2016-10-07T10:21:19.069Z,13.07
2016-10-07T10:22:19.097Z,13.25
2016-10-07T10:23:19.108Z,13.3
2016-10-07T10:24:19.137Z,13.46
2016-10-07T10:25:19.159Z,13.49
2016-10-07T10:26:19.194Z,13.49
2016-10-07T10:27:19.215Z,13.46
2016-10-07T10:28:19.227Z,13.26
2016-10-07T10:29:34.178Z,13.23
2016-10-07T10:30:19.277Z,12.93
2016-10-07T10:31:19.303Z,12.92
2016-10-07T10:32:19.329Z,13.05
2016-10-07T10:33:19.596Z,13.05
2016-10-07T10:34:19.375Z,12.82
2016-10-07T10:35:19.398Z,12.71
2016-10-07T10:36:19.420Z,12.68
2016-10-07T10:37:19.442Z,12.67
2016-10-07T10:38:19.466Z,12.79
2016-10-07T10:39:19.488Z,13
2016-10-07T10:40:19.515Z,13.05
2016-10-07T10:41:19.542Z,13.38
2016-10-07T10:42:34.484Z,13.41
2016-10-07T10:43:19.584Z,13.52
2016-10-07T10:44:34.530Z,13.49
2016-10-07T10:45:19.633Z,13.39
2016-10-07T10:46:19.658Z,13.33
2016-10-07T10:47:19.680Z,13.44
2016-10-07T10:48:19.706Z,13.51
2016-10-07T10:49:19.729Z,13.63
2016-10-07T10:50:19.754Z,13.67
2016-10-07T10:51:19.770Z,13.85
2016-10-07T10:52:19.805Z,14.04
2016-10-07T10:53:19.821Z,13.84
2016-10-07T10:54:19.850Z,13.95
2016-10-07T10:55:19.869Z,14.12
2016-10-07T10:56:34.816Z,14.39
2016-10-07T10:57:19.926Z,14.51
2016-10-07T10:58:19.937Z,14.5
2016-10-07T10:59:19.967Z,14.39
2016-10-07T11:00:34.909Z,14.45
2016-10-07T11:01:20.017Z,14.46
2016-10-07T11:02:20.050Z,14.42
2016-10-07T11:03:20.064Z,14.32
2016-10-07T11:04:20.377Z,14.35
2016-10-07T11:05:20.106Z,14.37
2016-10-07T11:06:20.133Z,14.29
2016-10-07T11:07:20.154Z,14.32
2016-10-07T11:08:20.177Z,14.33
2016-10-07T11:09:20.455Z,14.37
2016-10-07T11:10:20.226Z,14.37
2016-10-07T11:11:20.502Z,14.43
2016-10-07T11:12:20.275Z,14.46
2016-10-07T11:13:20.303Z,14.46
2016-10-07T11:14:20.317Z,14.52
2016-10-07T11:15:20.345Z,14.6
2016-10-07T11:16:35.291Z,14.57
2016-10-07T11:17:20.395Z,14.69
2016-10-07T11:18:20.419Z,14.5
2016-10-07T11:19:20.448Z,14.36
2016-10-07T11:20:20.459Z,14.25
2016-10-07T11:21:20.488Z,14.4
2016-10-07T11:22:20.512Z,14.51
2016-10-07T11:23:20.540Z,14.72
2016-10-07T11:24:20.574Z,14.7
2016-10-07T11:25:20.596Z,14.75
2016-10-07T11:26:20.857Z,14.81
2016-10-07T11:27:20.626Z,14.86
2016-10-07T11:28:20.654Z,14.75
2016-10-07T11:29:20.685Z,14.72
2016-10-07T11:30:20.699Z,14.68
2016-10-07T11:31:20.778Z,14.45
2016-10-07T11:32:35.672Z,14.04
2016-10-07T11:33:20.777Z,14.1
2016-10-07T11:34:21.052Z,13.87
2016-10-07T11:35:20.824Z,13.92
2016-10-07T11:36:20.849Z,14.04
2016-10-07T11:37:20.868Z,14.21
2016-10-07T11:38:20.900Z,14.46
2016-10-07T11:39:20.922Z,14.5
2016-10-07T11:40:20.959Z,14.46
2016-10-07T11:41:20.967Z,14.54
2016-10-07T11:42:20.989Z,14.6
2016-10-07T11:43:21.011Z,14.62
2016-10-07T11:44:21.038Z,14.77
2016-10-07T11:45:21.061Z,15.07
2016-10-07T11:46:21.085Z,15.07
2016-10-07T11:47:36.033Z,15.03
2016-10-07T11:48:36.058Z,14.92
2016-10-07T11:49:21.158Z,14.77
2016-10-07T11:50:21.189Z,14.7
2016-10-07T11:51:21.266Z,14.68
2016-10-07T11:52:22.231Z,14.57
2016-10-07T11:53:21.251Z,14.42
2016-10-07T11:54:21.289Z,14.33
2016-10-07T11:55:21.556Z,14.21
2016-10-07T11:56:21.330Z,14.18
2016-10-07T11:57:21.373Z,14.15
2016-10-07T11:58:21.380Z,14.09
2016-10-07T11:59:21.401Z,13.95
2016-10-07T12:00:21.424Z,13.97
2016-10-07T12:02:21.481Z,14.24
2016-10-07T12:03:21.491Z,14.09
2016-10-07T12:04:36.445Z,14.14
2016-10-07T12:05:21.543Z,14.2
2016-10-07T12:06:21.570Z,14.18
2016-10-07T12:07:21.592Z,14.28
2016-10-07T12:08:21.620Z,14.27
2016-10-07T12:09:21.947Z,14.4
2016-10-07T12:10:21.664Z,14.54
2016-10-07T12:11:21.687Z,14.55
2016-10-07T12:12:21.711Z,14.62
2016-10-07T12:13:21.738Z,14.72
2016-10-07T12:14:21.756Z,14.8
2016-10-07T12:15:36.706Z,14.89
2016-10-07T12:16:21.815Z,14.89
2016-10-07T12:17:21.826Z,14.92
2016-10-07T12:18:21.857Z,14.84
2016-10-07T12:19:36.800Z,14.89
2016-10-07T12:20:21.909Z,14.94
2016-10-07T12:21:21.926Z,14.73
2016-10-07T12:22:21.953Z,14.45
2016-10-07T12:23:21.973Z,14.39
2016-10-07T12:24:21.998Z,14.09
2016-10-07T12:25:22.022Z,14.14
2016-10-07T12:26:22.450Z,14.06
2016-10-07T12:27:22.070Z,14.21
2016-10-07T12:28:22.094Z,14.15
2016-10-07T12:29:22.119Z,14.25
2016-10-07T12:30:37.070Z,14.04
2016-10-07T12:31:22.170Z,13.92
2016-10-07T12:32:22.194Z,13.78
2016-10-07T12:33:22.219Z,13.75
2016-10-07T12:34:22.237Z,13.91
2016-10-07T12:35:22.266Z,13.7
2016-10-07T12:36:22.289Z,13.64
2016-10-07T12:37:22.315Z,13.66
2016-10-07T12:38:22.336Z,13.6
2016-10-07T12:39:22.363Z,13.64
2016-10-07T12:40:22.388Z,13.6
2016-10-07T12:41:22.412Z,13.6
2016-10-07T12:42:22.435Z,13.66
2016-10-07T12:43:22.703Z,13.64
2016-10-07T12:45:22.509Z,13.69
2016-10-07T12:46:22.523Z,13.62
2016-10-07T12:47:22.550Z,13.54
2016-10-07T12:48:22.584Z,13.64
2016-10-07T12:49:22.603Z,13.79
2016-10-07T12:50:22.721Z,13.73
2016-10-07T12:51:37.671Z,13.66
2016-10-07T12:52:22.671Z,13.7
2016-10-07T12:53:22.999Z,13.77
2016-10-07T12:54:22.724Z,13.92
2016-10-07T12:55:22.748Z,13.88
2016-10-07T12:56:22.768Z,13.7
2016-10-07T12:57:23.043Z,13.85
2016-10-07T12:58:22.829Z,13.89
2016-10-07T12:59:22.839Z,13.97
2016-10-07T13:00:22.861Z,13.99
2016-10-07T13:01:22.895Z,14.09
2016-10-07T13:02:22.910Z,14.22
2016-10-07T13:03:37.859Z,14.5
2016-10-07T13:04:22.955Z,14.46
2016-10-07T13:05:22.982Z,14.61
2016-10-07T13:06:37.925Z,14.68
2016-10-07T13:07:37.952Z,14.73
2016-10-07T13:08:23.061Z,14.61
2016-10-07T13:09:23.077Z,14.65
2016-10-07T13:10:23.103Z,14.58
2016-10-07T13:11:23.125Z,14.47
2016-10-07T13:12:23.142Z,14.45
2016-10-07T13:13:23.170Z,14.37
2016-10-07T13:14:23.194Z,14.43
2016-10-07T13:15:23.222Z,14.46
2016-10-07T13:16:23.248Z,14.39
2016-10-07T13:17:23.268Z,14.47
2016-10-07T13:18:23.292Z,14.5
2016-10-07T13:19:23.315Z,14.39
2016-10-07T13:20:23.344Z,14.36
2016-10-07T13:21:23.368Z,14.54
2016-10-07T13:22:23.383Z,14.65
2016-10-07T13:23:38.334Z,14.73
2016-10-07T13:24:23.443Z,14.77
2016-10-07T13:25:23.713Z,14.8
2016-10-07T13:26:23.481Z,14.47
2016-10-07T13:27:23.507Z,14.32
2016-10-07T13:28:23.533Z,14.04
2016-10-07T13:29:23.561Z,13.77
2016-10-07T13:30:23.583Z,13.63
2016-10-07T13:31:23.608Z,13.59
2016-10-07T13:34:23.678Z,14
2016-10-07T13:35:38.627Z,13.89
2016-10-07T13:36:23.736Z,13.67
2016-10-07T13:38:23.772Z,13.57
2016-10-07T13:39:38.723Z,13.64
2016-10-07T13:40:23.825Z,13.78
2016-10-07T13:41:23.843Z,13.95
2016-10-07T13:42:23.880Z,14.22